sensor_id;sensor_type;location;lat;lon;timestamp;P1;durP1;ratioP1;P2;durP2;ratioP2
1366;SDS011;16877;48.810;9.282;2024-02-23T00:01:47;1.60;;;0.43;;
1366;SDS011;16877;48.810;9.282;2024-02-23T00:04:14;1.53;;;0.40;;
1366;SDS011;16877;48.810;9.282;2024-02-23T00:06:41;2.33;;;0.50;;
1366;SDS011;16877;48.810;9.282;2024-02-23T00:09:08;2.17;;;0.60;;
1366;SDS011;16877;48.810;9.282;2024-02-23T00:11:35;1.80;;;0.50;;
1366;SDS011;16877;48.810;9.282;2024-02-23T00:14:06;1.83;;;0.40;;
1366;SDS011;16877;48.810;9.282;2024-02-23T00:16:36;1.80;;;0.40;;
1366;SDS011;16877;48.810;9.282;2024-02-23T00:19:03;1.50;;;0.47;;
1366;SDS011;16877;48.810;9.282;2024-02-23T00:21:31;1.60;;;0.50;;
1366;SDS011;16877;48.810;9.282;2024-02-23T00:23:58;1.50;;;0.50;;
1366;SDS011;16877;48.810;9.282;2024-02-23T00:26:25;1.50;;;0.50;;
1366;SDS011;16877;48.810;9.282;2024-02-23T00:28:53;1.50;;;0.40;;
1366;SDS011;16877;48.810;9.282;2024-02-23T00:31:21;1.50;;;0.40;;
1366;SDS011;16877;48.810;9.282;2024-02-23T00:33:48;2.00;;;0.60;;
1366;SDS011;16877;48.810;9.282;2024-02-23T00:36:15;2.23;;;0.60;;
1366;SDS011;16877;48.810;9.282;2024-02-23T00:38:42;1.50;;;0.40;;
1366;SDS011;16877;48.810;9.282;2024-02-23T00:41:09;1.77;;;0.50;;
1366;SDS011;16877;48.810;9.282;2024-02-23T00:43:39;2.53;;;0.50;;
1366;SDS011;16877;48.810;9.282;2024-02-23T00:46:06;2.17;;;0.60;;
1366;SDS011;16877;48.810;9.282;2024-02-23T00:48:35;1.80;;;0.60;;
1366;SDS011;16877;48.810;9.282;2024-02-23T00:51:02;1.50;;;0.40;;
1366;SDS011;16877;48.810;9.282;2024-02-23T00:53:30;2.20;;;0.60;;
1366;SDS011;16877;48.810;9.282;2024-02-23T00:55:57;2.20;;;0.60;;
1366;SDS011;16877;48.810;9.282;2024-02-23T00:58:24;2.47;;;0.83;;
1366;SDS011;16877;48.810;9.282;2024-02-23T01:00:51;1.87;;;0.73;;
1366;SDS011;16877;48.810;9.282;2024-02-23T01:03:18;2.33;;;0.70;;
1366;SDS011;16877;48.810;9.282;2024-02-23T01:05:47;2.53;;;0.70;;
1366;SDS011;16877;48.810;9.282;2024-02-23T01:08:14;2.93;;;0.93;;
1366;SDS011;16877;48.810;9.282;2024-02-23T01:10:41;2.63;;;0.80;;
1366;SDS011;16877;48.810;9.282;2024-02-23T01:13:08;2.20;;;0.80;;
1366;SDS011;16877;48.810;9.282;2024-02-23T01:15:35;1.90;;;0.67;;
1366;SDS011;16877;48.810;9.282;2024-02-23T01:18:02;2.67;;;0.67;;
1366;SDS011;16877;48.810;9.282;2024-02-23T01:20:30;3.30;;;0.70;;
1366;SDS011;16877;48.810;9.282;2024-02-23T01:22:59;2.37;;;0.50;;
1366;SDS011;16877;48.810;9.282;2024-02-23T01:25:26;1.80;;;0.60;;
1366;SDS011;16877;48.810;9.282;2024-02-23T01:27:53;1.77;;;0.50;;
1366;SDS011;16877;48.810;9.282;2024-02-23T01:30:20;2.57;;;0.60;;
1366;SDS011;16877;48.810;9.282;2024-02-23T01:32:47;1.50;;;0.60;;
1366;SDS011;16877;48.810;9.282;2024-02-23T01:35:15;3.23;;;0.83;;
1366;SDS011;16877;48.810;9.282;2024-02-23T01:37:42;2.37;;;0.53;;
1366;SDS011;16877;48.810;9.282;2024-02-23T01:40:11;2.60;;;0.80;;
1366;SDS011;16877;48.810;9.282;2024-02-23T01:42:38;5.13;;;0.67;;
1366;SDS011;16877;48.810;9.282;2024-02-23T01:45:05;1.70;;;0.50;;
1366;SDS011;16877;48.810;9.282;2024-02-23T01:47:33;2.00;;;0.70;;
1366;SDS011;16877;48.810;9.282;2024-02-23T01:50:00;1.70;;;0.60;;
1366;SDS011;16877;48.810;9.282;2024-02-23T01:52:28;4.13;;;0.70;;
1366;SDS011;16877;48.810;9.282;2024-02-23T01:54:55;2.47;;;0.77;;
1366;SDS011;16877;48.810;9.282;2024-02-23T01:57:24;2.17;;;0.80;;
1366;SDS011;16877;48.810;9.282;2024-02-23T01:59:51;1.80;;;0.50;;
1366;SDS011;16877;48.810;9.282;2024-02-23T02:02:18;2.47;;;0.60;;
1366;SDS011;16877;48.810;9.282;2024-02-23T02:04:45;3.00;;;0.67;;
1366;SDS011;16877;48.810;9.282;2024-02-23T02:07:13;1.70;;;0.60;;
1366;SDS011;16877;48.810;9.282;2024-02-23T02:09:40;2.20;;;0.80;;
1366;SDS011;16877;48.810;9.282;2024-02-23T02:12:07;3.00;;;0.73;;
1366;SDS011;16877;48.810;9.282;2024-02-23T02:14:36;3.00;;;0.93;;
1366;SDS011;16877;48.810;9.282;2024-02-23T02:17:03;1.80;;;0.57;;
1366;SDS011;16877;48.810;9.282;2024-02-23T02:19:30;2.20;;;0.80;;
1366;SDS011;16877;48.810;9.282;2024-02-23T02:21:57;2.10;;;0.63;;
1366;SDS011;16877;48.810;9.282;2024-02-23T02:24:24;3.80;;;0.73;;
1366;SDS011;16877;48.810;9.282;2024-02-23T02:26:51;2.60;;;0.90;;
1366;SDS011;16877;48.810;9.282;2024-02-23T02:29:18;2.63;;;0.70;;
1366;SDS011;16877;48.810;9.282;2024-02-23T02:31:47;3.60;;;1.10;;
1366;SDS011;16877;48.810;9.282;2024-02-23T02:34:14;2.83;;;1.17;;
1366;SDS011;16877;48.810;9.282;2024-02-23T02:36:41;3.30;;;1.13;;
1366;SDS011;16877;48.810;9.282;2024-02-23T02:39:08;4.63;;;1.10;;
1366;SDS011;16877;48.810;9.282;2024-02-23T02:41:35;2.13;;;0.90;;
1366;SDS011;16877;48.810;9.282;2024-02-23T02:44:02;3.63;;;1.20;;
1366;SDS011;16877;48.810;9.282;2024-02-23T02:46:29;2.70;;;0.90;;
1366;SDS011;16877;48.810;9.282;2024-02-23T02:48:58;4.73;;;1.43;;
1366;SDS011;16877;48.810;9.282;2024-02-23T02:51:25;2.87;;;1.30;;
1366;SDS011;16877;48.810;9.282;2024-02-23T02:53:52;2.50;;;0.93;;
1366;SDS011;16877;48.810;9.282;2024-02-23T02:56:19;2.57;;;0.90;;
1366;SDS011;16877;48.810;9.282;2024-02-23T02:58:46;3.23;;;0.73;;
1366;SDS011;16877;48.810;9.282;2024-02-23T03:01:13;2.10;;;0.80;;
1366;SDS011;16877;48.810;9.282;2024-02-23T03:03:40;2.20;;;0.67;;
1366;SDS011;16877;48.810;9.282;2024-02-23T03:06:08;3.37;;;0.87;;
1366;SDS011;16877;48.810;9.282;2024-02-23T03:08:35;2.73;;;0.80;;
1366;SDS011;16877;48.810;9.282;2024-02-23T03:11:02;4.67;;;0.80;;
1366;SDS011;16877;48.810;9.282;2024-02-23T03:13:30;2.40;;;0.80;;
1366;SDS011;16877;48.810;9.282;2024-02-23T03:15:57;3.73;;;0.90;;
1366;SDS011;16877;48.810;9.282;2024-02-23T03:18:24;3.67;;;1.43;;
1366;SDS011;16877;48.810;9.282;2024-02-23T03:20:52;2.63;;;1.10;;
1366;SDS011;16877;48.810;9.282;2024-02-23T03:23:21;1.90;;;0.70;;
1366;SDS011;16877;48.810;9.282;2024-02-23T03:25:48;2.53;;;0.80;;
1366;SDS011;16877;48.810;9.282;2024-02-23T03:28:15;3.60;;;1.10;;
1366;SDS011;16877;48.810;9.282;2024-02-23T03:30:42;2.50;;;0.73;;
1366;SDS011;16877;48.810;9.282;2024-02-23T03:33:09;2.77;;;0.83;;
1366;SDS011;16877;48.810;9.282;2024-02-23T03:35:36;3.90;;;0.93;;
1366;SDS011;16877;48.810;9.282;2024-02-23T03:38:03;3.50;;;0.97;;
1366;SDS011;16877;48.810;9.282;2024-02-23T03:40:32;2.40;;;0.90;;
1366;SDS011;16877;48.810;9.282;2024-02-23T03:43:00;2.53;;;0.97;;
1366;SDS011;16877;48.810;9.282;2024-02-23T03:45:28;1.87;;;0.80;;
1366;SDS011;16877;48.810;9.282;2024-02-23T03:47:55;2.50;;;0.80;;
1366;SDS011;16877;48.810;9.282;2024-02-23T03:50:22;2.40;;;0.73;;
1366;SDS011;16877;48.810;9.282;2024-02-23T03:52:49;2.43;;;0.90;;
1366;SDS011;16877;48.810;9.282;2024-02-23T03:55:16;2.40;;;1.00;;
1366;SDS011;16877;48.810;9.282;2024-02-23T03:57:44;3.37;;;1.00;;
1366;SDS011;16877;48.810;9.282;2024-02-23T04:00:12;2.50;;;0.93;;
1366;SDS011;16877;48.810;9.282;2024-02-23T04:02:39;2.03;;;0.73;;
1366;SDS011;16877;48.810;9.282;2024-02-23T04:05:06;2.70;;;0.97;;
1366;SDS011;16877;48.810;9.282;2024-02-23T04:07:33;2.43;;;1.10;;
1366;SDS011;16877;48.810;9.282;2024-02-23T04:10:00;3.60;;;1.13;;
1366;SDS011;16877;48.810;9.282;2024-02-23T04:12:29;2.70;;;1.17;;
1366;SDS011;16877;48.810;9.282;2024-02-23T04:14:58;2.53;;;0.73;;
1366;SDS011;16877;48.810;9.282;2024-02-23T04:17:25;3.30;;;1.00;;
1366;SDS011;16877;48.810;9.282;2024-02-23T04:19:52;1.80;;;0.73;;
1366;SDS011;16877;48.810;9.282;2024-02-23T04:22:19;3.43;;;0.80;;
1366;SDS011;16877;48.810;9.282;2024-02-23T04:24:46;2.50;;;1.00;;
1366;SDS011;16877;48.810;9.282;2024-02-23T04:27:13;1.90;;;0.70;;
1366;SDS011;16877;48.810;9.282;2024-02-23T04:29:40;3.17;;;1.10;;
1366;SDS011;16877;48.810;9.282;2024-02-23T04:32:08;2.33;;;1.00;;
1366;SDS011;16877;48.810;9.282;2024-02-23T04:34:35;2.00;;;0.60;;
1366;SDS011;16877;48.810;9.282;2024-02-23T04:37:02;2.07;;;0.80;;
1366;SDS011;16877;48.810;9.282;2024-02-23T04:39:29;2.43;;;0.87;;
1366;SDS011;16877;48.810;9.282;2024-02-23T04:41:56;2.60;;;0.83;;
1366;SDS011;16877;48.810;9.282;2024-02-23T04:44:24;2.63;;;0.90;;
1366;SDS011;16877;48.810;9.282;2024-02-23T04:46:51;2.43;;;0.97;;
1366;SDS011;16877;48.810;9.282;2024-02-23T04:49:19;3.70;;;1.07;;
1366;SDS011;16877;48.810;9.282;2024-02-23T04:51:46;2.23;;;1.00;;
1366;SDS011;16877;48.810;9.282;2024-02-23T04:54:13;3.43;;;1.23;;
1366;SDS011;16877;48.810;9.282;2024-02-23T04:56:40;3.47;;;1.00;;
1366;SDS011;16877;48.810;9.282;2024-02-23T04:59:07;2.37;;;0.80;;
1366;SDS011;16877;48.810;9.282;2024-02-23T05:01:35;1.80;;;0.60;;
1366;SDS011;16877;48.810;9.282;2024-02-23T05:04:02;2.70;;;1.10;;
1366;SDS011;16877;48.810;9.282;2024-02-23T05:06:31;2.67;;;1.20;;
1366;SDS011;16877;48.810;9.282;2024-02-23T05:08:58;2.63;;;1.07;;
1366;SDS011;16877;48.810;9.282;2024-02-23T05:11:25;3.30;;;1.30;;
1366;SDS011;16877;48.810;9.282;2024-02-23T05:13:52;4.77;;;1.20;;
1366;SDS011;16877;48.810;9.282;2024-02-23T05:16:19;2.63;;;1.53;;
1366;SDS011;16877;48.810;9.282;2024-02-23T05:18:46;2.13;;;0.83;;
1366;SDS011;16877;48.810;9.282;2024-02-23T05:21:14;6.43;;;1.60;;
1366;SDS011;16877;48.810;9.282;2024-02-23T05:23:43;4.33;;;1.20;;
1366;SDS011;16877;48.810;9.282;2024-02-23T05:26:11;3.43;;;1.20;;
1366;SDS011;16877;48.810;9.282;2024-02-23T05:28:38;2.80;;;1.00;;
1366;SDS011;16877;48.810;9.282;2024-02-23T05:31:05;2.33;;;1.20;;
1366;SDS011;16877;48.810;9.282;2024-02-23T05:33:32;3.57;;;1.00;;
1366;SDS011;16877;48.810;9.282;2024-02-23T05:35:59;3.67;;;1.13;;
1366;SDS011;16877;48.810;9.282;2024-02-23T05:38:26;2.77;;;1.20;;
1366;SDS011;16877;48.810;9.282;2024-02-23T05:40:55;3.03;;;1.07;;
1366;SDS011;16877;48.810;9.282;2024-02-23T05:43:22;3.60;;;1.03;;
1366;SDS011;16877;48.810;9.282;2024-02-23T05:45:49;2.63;;;1.00;;
1366;SDS011;16877;48.810;9.282;2024-02-23T05:48:16;3.00;;;1.30;;
1366;SDS011;16877;48.810;9.282;2024-02-23T05:50:44;3.33;;;1.00;;
1366;SDS011;16877;48.810;9.282;2024-02-23T05:53:11;2.10;;;0.93;;
1366;SDS011;16877;48.810;9.282;2024-02-23T05:55:38;2.40;;;0.80;;
1366;SDS011;16877;48.810;9.282;2024-02-23T05:58:06;2.80;;;1.30;;
1366;SDS011;16877;48.810;9.282;2024-02-23T06:00:34;2.73;;;0.97;;
1366;SDS011;16877;48.810;9.282;2024-02-23T06:03:01;2.27;;;0.90;;
1366;SDS011;16877;48.810;9.282;2024-02-23T06:05:28;2.53;;;1.27;;
1366;SDS011;16877;48.810;9.282;2024-02-23T06:07:55;2.47;;;1.00;;
1366;SDS011;16877;48.810;9.282;2024-02-23T06:10:22;3.87;;;1.20;;
1366;SDS011;16877;48.810;9.282;2024-02-23T06:12:49;3.20;;;1.17;;
1366;SDS011;16877;48.810;9.282;2024-02-23T06:15:18;3.03;;;1.10;;
1366;SDS011;16877;48.810;9.282;2024-02-23T06:17:45;2.50;;;0.93;;
1366;SDS011;16877;48.810;9.282;2024-02-23T06:20:12;2.97;;;0.80;;
1366;SDS011;16877;48.810;9.282;2024-02-23T06:22:39;3.33;;;1.47;;
1366;SDS011;16877;48.810;9.282;2024-02-23T06:25:06;3.03;;;1.20;;
1366;SDS011;16877;48.810;9.282;2024-02-23T06:27:33;3.00;;;1.17;;
1366;SDS011;16877;48.810;9.282;2024-02-23T06:30:00;2.63;;;1.00;;
1366;SDS011;16877;48.810;9.282;2024-02-23T06:32:29;2.90;;;1.23;;
1366;SDS011;16877;48.810;9.282;2024-02-23T06:34:56;2.23;;;0.90;;
1366;SDS011;16877;48.810;9.282;2024-02-23T06:37:23;2.40;;;0.97;;
1366;SDS011;16877;48.810;9.282;2024-02-23T06:39:50;3.67;;;1.23;;
1366;SDS011;16877;48.810;9.282;2024-02-23T06:42:19;2.77;;;0.93;;
1366;SDS011;16877;48.810;9.282;2024-02-23T06:44:46;3.40;;;0.93;;
1366;SDS011;16877;48.810;9.282;2024-02-23T06:47:14;2.27;;;0.90;;
1366;SDS011;16877;48.810;9.282;2024-02-23T06:49:42;2.27;;;0.80;;
1366;SDS011;16877;48.810;9.282;2024-02-23T06:52:09;2.50;;;0.90;;
1366;SDS011;16877;48.810;9.282;2024-02-23T06:54:37;1.90;;;0.80;;
1366;SDS011;16877;48.810;9.282;2024-02-23T06:57:04;2.30;;;0.93;;
1366;SDS011;16877;48.810;9.282;2024-02-23T06:59:31;1.90;;;0.77;;
1366;SDS011;16877;48.810;9.282;2024-02-23T07:01:58;2.93;;;1.10;;
1366;SDS011;16877;48.810;9.282;2024-02-23T07:04:25;2.40;;;1.10;;
1366;SDS011;16877;48.810;9.282;2024-02-23T07:06:55;3.00;;;1.00;;
1366;SDS011;16877;48.810;9.282;2024-02-23T07:09:22;4.13;;;1.13;;
1366;SDS011;16877;48.810;9.282;2024-02-23T07:11:49;2.83;;;1.40;;
1366;SDS011;16877;48.810;9.282;2024-02-23T07:14:16;3.00;;;1.77;;
1366;SDS011;16877;48.810;9.282;2024-02-23T07:16:44;2.33;;;1.00;;
1366;SDS011;16877;48.810;9.282;2024-02-23T07:19:12;2.20;;;1.13;;
1366;SDS011;16877;48.810;9.282;2024-02-23T07:21:39;2.80;;;1.10;;
1366;SDS011;16877;48.810;9.282;2024-02-23T07:24:07;3.10;;;1.40;;
1366;SDS011;16877;48.810;9.282;2024-02-23T07:26:34;2.90;;;1.27;;
1366;SDS011;16877;48.810;9.282;2024-02-23T07:29:01;2.30;;;1.00;;
1366;SDS011;16877;48.810;9.282;2024-02-23T07:31:28;2.80;;;1.10;;
1366;SDS011;16877;48.810;9.282;2024-02-23T07:33:55;2.53;;;1.00;;
1366;SDS011;16877;48.810;9.282;2024-02-23T07:36:22;2.37;;;0.90;;
1366;SDS011;16877;48.810;9.282;2024-02-23T07:38:49;4.43;;;1.00;;
1366;SDS011;16877;48.810;9.282;2024-02-23T07:41:18;3.00;;;1.07;;
1366;SDS011;16877;48.810;9.282;2024-02-23T07:43:45;3.70;;;1.37;;
1366;SDS011;16877;48.810;9.282;2024-02-23T07:46:12;2.60;;;1.13;;
1366;SDS011;16877;48.810;9.282;2024-02-23T07:48:39;2.80;;;1.33;;
1366;SDS011;16877;48.810;9.282;2024-02-23T07:51:06;2.83;;;1.10;;
1366;SDS011;16877;48.810;9.282;2024-02-23T07:53:33;3.87;;;1.33;;
1366;SDS011;16877;48.810;9.282;2024-02-23T07:56:00;3.00;;;1.57;;
1366;SDS011;16877;48.810;9.282;2024-02-23T07:58:29;3.60;;;1.53;;
1366;SDS011;16877;48.810;9.282;2024-02-23T08:00:56;2.77;;;1.23;;
1366;SDS011;16877;48.810;9.282;2024-02-23T08:03:23;3.67;;;1.50;;
1366;SDS011;16877;48.810;9.282;2024-02-23T08:05:51;2.97;;;1.47;;
1366;SDS011;16877;48.810;9.282;2024-02-23T08:08:18;3.60;;;1.50;;
1366;SDS011;16877;48.810;9.282;2024-02-23T08:10:47;4.47;;;1.50;;
1366;SDS011;16877;48.810;9.282;2024-02-23T08:13:14;3.10;;;1.30;;
1366;SDS011;16877;48.810;9.282;2024-02-23T08:15:44;3.43;;;1.60;;
1366;SDS011;16877;48.810;9.282;2024-02-23T08:18:11;3.60;;;1.67;;
1366;SDS011;16877;48.810;9.282;2024-02-23T08:20:38;3.70;;;1.50;;
1366;SDS011;16877;48.810;9.282;2024-02-23T08:23:05;2.70;;;1.10;;
1366;SDS011;16877;48.810;9.282;2024-02-23T08:25:32;2.63;;;1.20;;
1366;SDS011;16877;48.810;9.282;2024-02-23T08:27:59;4.13;;;1.67;;
1366;SDS011;16877;48.810;9.282;2024-02-23T08:30:26;3.90;;;1.67;;
1366;SDS011;16877;48.810;9.282;2024-02-23T08:32:54;4.00;;;1.77;;
1366;SDS011;16877;48.810;9.282;2024-02-23T08:35:21;3.53;;;1.80;;
1366;SDS011;16877;48.810;9.282;2024-02-23T08:37:48;5.10;;;1.80;;
1366;SDS011;16877;48.810;9.282;2024-02-23T08:40:15;3.20;;;1.70;;
1366;SDS011;16877;48.810;9.282;2024-02-23T08:42:43;3.33;;;1.77;;
1366;SDS011;16877;48.810;9.282;2024-02-23T08:45:10;3.60;;;1.57;;
1366;SDS011;16877;48.810;9.282;2024-02-23T08:47:37;3.73;;;1.53;;
1366;SDS011;16877;48.810;9.282;2024-02-23T08:50:06;7.40;;;1.73;;
1366;SDS011;16877;48.810;9.282;2024-02-23T08:52:34;4.70;;;1.50;;
1366;SDS011;16877;48.810;9.282;2024-02-23T08:55:01;3.50;;;1.23;;
1366;SDS011;16877;48.810;9.282;2024-02-23T08:57:28;2.97;;;1.20;;
1366;SDS011;16877;48.810;9.282;2024-02-23T08:59:55;3.50;;;1.40;;
1366;SDS011;16877;48.810;9.282;2024-02-23T09:02:23;3.07;;;1.40;;
1366;SDS011;16877;48.810;9.282;2024-02-23T09:04:50;3.33;;;1.23;;
1366;SDS011;16877;48.810;9.282;2024-02-23T09:07:18;2.83;;;1.30;;
1366;SDS011;16877;48.810;9.282;2024-02-23T09:09:46;7.60;;;1.30;;
1366;SDS011;16877;48.810;9.282;2024-02-23T09:12:13;3.70;;;1.40;;
1366;SDS011;16877;48.810;9.282;2024-02-23T09:14:41;3.13;;;1.20;;
1366;SDS011;16877;48.810;9.282;2024-02-23T09:17:08;6.17;;;1.50;;
1366;SDS011;16877;48.810;9.282;2024-02-23T09:19:36;4.03;;;1.57;;
1366;SDS011;16877;48.810;9.282;2024-02-23T09:22:03;3.23;;;1.40;;
1366;SDS011;16877;48.810;9.282;2024-02-23T09:24:31;3.43;;;1.27;;
1366;SDS011;16877;48.810;9.282;2024-02-23T09:26:58;5.33;;;1.60;;
1366;SDS011;16877;48.810;9.282;2024-02-23T09:29:25;3.63;;;1.57;;
1366;SDS011;16877;48.810;9.282;2024-02-23T09:31:52;2.87;;;1.40;;
1366;SDS011;16877;48.810;9.282;2024-02-23T09:34:19;4.80;;;2.00;;
1366;SDS011;16877;48.810;9.282;2024-02-23T09:36:46;4.10;;;1.60;;
1366;SDS011;16877;48.810;9.282;2024-02-23T09:39:13;3.13;;;1.70;;
1366;SDS011;16877;48.810;9.282;2024-02-23T09:41:42;4.00;;;1.97;;
1366;SDS011;16877;48.810;9.282;2024-02-23T09:44:09;4.20;;;1.70;;
1366;SDS011;16877;48.810;9.282;2024-02-23T09:46:36;5.10;;;1.93;;
1366;SDS011;16877;48.810;9.282;2024-02-23T09:49:04;3.93;;;2.00;;
1366;SDS011;16877;48.810;9.282;2024-02-23T09:51:33;2.53;;;1.30;;
1366;SDS011;16877;48.810;9.282;2024-02-23T09:54:00;2.67;;;1.30;;
1366;SDS011;16877;48.810;9.282;2024-02-23T09:56:28;4.93;;;1.97;;
1366;SDS011;16877;48.810;9.282;2024-02-23T09:58:57;2.23;;;1.10;;
1366;SDS011;16877;48.810;9.282;2024-02-23T10:01:27;5.00;;;1.60;;
1366;SDS011;16877;48.810;9.282;2024-02-23T10:03:54;4.20;;;1.20;;
1366;SDS011;16877;48.810;9.282;2024-02-23T10:06:23;3.70;;;1.40;;
1366;SDS011;16877;48.810;9.282;2024-02-23T10:08:50;3.50;;;1.20;;
1366;SDS011;16877;48.810;9.282;2024-02-23T10:11:19;3.53;;;1.30;;
1366;SDS011;16877;48.810;9.282;2024-02-23T10:13:47;5.60;;;1.50;;
1366;SDS011;16877;48.810;9.282;2024-02-23T10:16:16;3.47;;;1.40;;
1366;SDS011;16877;48.810;9.282;2024-02-23T10:18:45;3.43;;;1.43;;
1366;SDS011;16877;48.810;9.282;2024-02-23T10:21:13;3.40;;;1.57;;
1366;SDS011;16877;48.810;9.282;2024-02-23T10:23:40;3.90;;;1.50;;
1366;SDS011;16877;48.810;9.282;2024-02-23T10:26:07;5.00;;;1.70;;
1366;SDS011;16877;48.810;9.282;2024-02-23T10:28:35;4.87;;;1.50;;
1366;SDS011;16877;48.810;9.282;2024-02-23T10:31:04;4.07;;;1.40;;
1366;SDS011;16877;48.810;9.282;2024-02-23T10:33:32;3.20;;;1.57;;
1366;SDS011;16877;48.810;9.282;2024-02-23T10:35:59;3.80;;;1.47;;
1366;SDS011;16877;48.810;9.282;2024-02-23T10:38:27;3.60;;;1.50;;
1366;SDS011;16877;48.810;9.282;2024-02-23T10:40:55;5.57;;;1.73;;
1366;SDS011;16877;48.810;9.282;2024-02-23T10:43:24;4.70;;;1.70;;
1366;SDS011;16877;48.810;9.282;2024-02-23T10:45:53;4.80;;;1.83;;
1366;SDS011;16877;48.810;9.282;2024-02-23T10:48:20;4.27;;;1.60;;
1366;SDS011;16877;48.810;9.282;2024-02-23T10:50:49;4.07;;;1.53;;
1366;SDS011;16877;48.810;9.282;2024-02-23T10:53:17;4.20;;;1.40;;
1366;SDS011;16877;48.810;9.282;2024-02-23T10:55:45;3.00;;;1.30;;
1366;SDS011;16877;48.810;9.282;2024-02-23T10:58:13;4.03;;;1.30;;
1366;SDS011;16877;48.810;9.282;2024-02-23T11:00:41;4.20;;;1.67;;
1366;SDS011;16877;48.810;9.282;2024-02-23T11:03:10;3.37;;;1.40;;
1366;SDS011;16877;48.810;9.282;2024-02-23T11:05:38;2.73;;;0.90;;
1366;SDS011;16877;48.810;9.282;2024-02-23T11:08:07;3.70;;;1.50;;
1366;SDS011;16877;48.810;9.282;2024-02-23T11:10:41;3.97;;;1.67;;
1366;SDS011;16877;48.810;9.282;2024-02-23T11:13:08;3.83;;;1.13;;
1366;SDS011;16877;48.810;9.282;2024-02-23T11:15:35;3.80;;;1.40;;
1366;SDS011;16877;48.810;9.282;2024-02-23T11:18:20;4.50;;;2.00;;
1366;SDS011;16877;48.810;9.282;2024-02-23T11:20:53;5.20;;;1.30;;
1366;SDS011;16877;48.810;9.282;2024-02-23T11:23:21;3.50;;;1.40;;
1366;SDS011;16877;48.810;9.282;2024-02-23T11:26:04;4.10;;;1.90;;
1366;SDS011;16877;48.810;9.282;2024-02-23T11:28:33;5.80;;;1.90;;
1366;SDS011;16877;48.810;9.282;2024-02-23T11:31:00;5.23;;;2.10;;
1366;SDS011;16877;48.810;9.282;2024-02-23T11:33:27;3.87;;;1.17;;
1366;SDS011;16877;48.810;9.282;2024-02-23T11:36:04;4.43;;;1.60;;
1366;SDS011;16877;48.810;9.282;2024-02-23T11:38:33;3.07;;;1.10;;
1366;SDS011;16877;48.810;9.282;2024-02-23T11:41:01;3.17;;;1.33;;
1366;SDS011;16877;48.810;9.282;2024-02-23T11:43:29;5.60;;;1.57;;
1366;SDS011;16877;48.810;9.282;2024-02-23T11:45:56;3.20;;;1.27;;
1366;SDS011;16877;48.810;9.282;2024-02-23T11:48:23;3.63;;;1.17;;
1366;SDS011;16877;48.810;9.282;2024-02-23T11:50:50;3.83;;;1.40;;
1366;SDS011;16877;48.810;9.282;2024-02-23T11:53:17;3.77;;;1.57;;
1366;SDS011;16877;48.810;9.282;2024-02-23T11:55:48;4.90;;;1.50;;
1366;SDS011;16877;48.810;9.282;2024-02-23T11:58:15;4.00;;;1.50;;
1366;SDS011;16877;48.810;9.282;2024-02-23T12:00:43;4.67;;;1.73;;
1366;SDS011;16877;48.810;9.282;2024-02-23T12:03:10;2.93;;;1.30;;
1366;SDS011;16877;48.810;9.282;2024-02-23T12:05:37;4.97;;;1.43;;
1366;SDS011;16877;48.810;9.282;2024-02-23T12:08:05;3.90;;;1.40;;
1366;SDS011;16877;48.810;9.282;2024-02-23T12:10:32;3.53;;;1.20;;
1366;SDS011;16877;48.810;9.282;2024-02-23T12:13:00;3.83;;;1.43;;
1366;SDS011;16877;48.810;9.282;2024-02-23T12:15:28;5.67;;;2.07;;
1366;SDS011;16877;48.810;9.282;2024-02-23T12:17:57;4.73;;;1.80;;
1366;SDS011;16877;48.810;9.282;2024-02-23T12:20:25;3.50;;;1.20;;
1366;SDS011;16877;48.810;9.282;2024-02-23T12:22:54;3.63;;;1.50;;
1366;SDS011;16877;48.810;9.282;2024-02-23T12:25:22;4.67;;;1.63;;
1366;SDS011;16877;48.810;9.282;2024-02-23T12:27:53;5.03;;;1.50;;
1366;SDS011;16877;48.810;9.282;2024-02-23T12:30:22;4.13;;;1.60;;
1366;SDS011;16877;48.810;9.282;2024-02-23T12:32:49;5.20;;;2.20;;
1366;SDS011;16877;48.810;9.282;2024-02-23T12:35:16;5.70;;;1.90;;
1366;SDS011;16877;48.810;9.282;2024-02-23T12:37:43;3.40;;;1.43;;
1366;SDS011;16877;48.810;9.282;2024-02-23T12:40:10;4.93;;;1.90;;
1366;SDS011;16877;48.810;9.282;2024-02-23T12:42:38;3.70;;;1.83;;
1366;SDS011;16877;48.810;9.282;2024-02-23T12:45:05;4.87;;;1.50;;
1366;SDS011;16877;48.810;9.282;2024-02-23T12:47:34;3.27;;;1.33;;
1366;SDS011;16877;48.810;9.282;2024-02-23T12:50:01;3.07;;;1.37;;
1366;SDS011;16877;48.810;9.282;2024-02-23T12:52:28;4.13;;;1.50;;
1366;SDS011;16877;48.810;9.282;2024-02-23T12:54:55;4.13;;;1.53;;
1366;SDS011;16877;48.810;9.282;2024-02-23T12:57:22;4.93;;;1.43;;
1366;SDS011;16877;48.810;9.282;2024-02-23T12:59:49;4.10;;;1.30;;
1366;SDS011;16877;48.810;9.282;2024-02-23T13:02:16;5.20;;;1.47;;
1366;SDS011;16877;48.810;9.282;2024-02-23T13:04:45;3.23;;;1.53;;
1366;SDS011;16877;48.810;9.282;2024-02-23T13:07:14;4.97;;;1.50;;
1366;SDS011;16877;48.810;9.282;2024-02-23T13:09:41;6.80;;;1.73;;
1366;SDS011;16877;48.810;9.282;2024-02-23T13:12:08;4.60;;;1.63;;
1366;SDS011;16877;48.810;9.282;2024-02-23T13:14:36;3.63;;;1.77;;
1366;SDS011;16877;48.810;9.282;2024-02-23T13:17:03;4.13;;;1.30;;
1366;SDS011;16877;48.810;9.282;2024-02-23T13:19:30;6.80;;;2.37;;
1366;SDS011;16877;48.810;9.282;2024-02-23T13:21:58;3.00;;;1.63;;
1366;SDS011;16877;48.810;9.282;2024-02-23T13:24:26;3.00;;;1.50;;
1366;SDS011;16877;48.810;9.282;2024-02-23T13:26:53;6.80;;;1.90;;
1366;SDS011;16877;48.810;9.282;2024-02-23T13:29:20;4.87;;;1.60;;
1366;SDS011;16877;48.810;9.282;2024-02-23T13:31:47;3.90;;;1.77;;
1366;SDS011;16877;48.810;9.282;2024-02-23T13:34:14;4.60;;;1.50;;
1366;SDS011;16877;48.810;9.282;2024-02-23T13:36:42;3.60;;;1.30;;
1366;SDS011;16877;48.810;9.282;2024-02-23T13:39:11;4.17;;;1.30;;
1366;SDS011;16877;48.810;9.282;2024-02-23T13:41:38;11.50;;;1.97;;
1366;SDS011;16877;48.810;9.282;2024-02-23T13:44:05;4.50;;;1.70;;
1366;SDS011;16877;48.810;9.282;2024-02-23T13:46:35;4.80;;;1.73;;
1366;SDS011;16877;48.810;9.282;2024-02-23T13:49:03;4.27;;;1.70;;
1366;SDS011;16877;48.810;9.282;2024-02-23T13:51:30;4.23;;;1.27;;
1366;SDS011;16877;48.810;9.282;2024-02-23T13:53:57;5.03;;;1.87;;
1366;SDS011;16877;48.810;9.282;2024-02-23T13:56:26;3.33;;;1.20;;
1366;SDS011;16877;48.810;9.282;2024-02-23T13:58:53;3.40;;;1.40;;
1366;SDS011;16877;48.810;9.282;2024-02-23T14:01:20;3.23;;;1.30;;
1366;SDS011;16877;48.810;9.282;2024-02-23T14:03:47;3.60;;;1.70;;
1366;SDS011;16877;48.810;9.282;2024-02-23T14:06:14;4.90;;;1.60;;
1366;SDS011;16877;48.810;9.282;2024-02-23T14:08:41;7.23;;;1.83;;
1366;SDS011;16877;48.810;9.282;2024-02-23T14:11:09;3.37;;;1.50;;
1366;SDS011;16877;48.810;9.282;2024-02-23T14:13:38;4.47;;;1.70;;
1366;SDS011;16877;48.810;9.282;2024-02-23T14:16:05;5.23;;;1.87;;
1366;SDS011;16877;48.810;9.282;2024-02-23T14:18:32;3.37;;;1.43;;
1366;SDS011;16877;48.810;9.282;2024-02-23T14:21:02;5.93;;;2.30;;
1366;SDS011;16877;48.810;9.282;2024-02-23T14:23:29;5.60;;;1.67;;
1366;SDS011;16877;48.810;9.282;2024-02-23T14:25:56;5.70;;;1.93;;
1366;SDS011;16877;48.810;9.282;2024-02-23T14:28:23;7.53;;;2.00;;
1366;SDS011;16877;48.810;9.282;2024-02-23T14:30:51;3.77;;;1.57;;
1366;SDS011;16877;48.810;9.282;2024-02-23T14:33:18;5.30;;;2.00;;
1366;SDS011;16877;48.810;9.282;2024-02-23T14:35:46;4.30;;;1.93;;
1366;SDS011;16877;48.810;9.282;2024-02-23T14:38:14;5.97;;;2.03;;
1366;SDS011;16877;48.810;9.282;2024-02-23T14:40:41;3.67;;;1.50;;
1366;SDS011;16877;48.810;9.282;2024-02-23T14:43:08;6.97;;;2.00;;
1366;SDS011;16877;48.810;9.282;2024-02-23T14:45:35;3.23;;;1.47;;
1366;SDS011;16877;48.810;9.282;2024-02-23T14:48:04;3.60;;;1.37;;
1366;SDS011;16877;48.810;9.282;2024-02-23T14:50:31;3.27;;;1.30;;
1366;SDS011;16877;48.810;9.282;2024-02-23T14:52:58;5.33;;;1.60;;
1366;SDS011;16877;48.810;9.282;2024-02-23T14:55:25;4.20;;;1.80;;
1366;SDS011;16877;48.810;9.282;2024-02-23T14:57:52;3.30;;;1.57;;
1366;SDS011;16877;48.810;9.282;2024-02-23T15:00:19;3.93;;;1.73;;
1366;SDS011;16877;48.810;9.282;2024-02-23T15:02:46;4.10;;;1.57;;